Time;durP1;ratioP1;P1;durP2;ratioP2;P2;SDS_P1;SDS_P2;PMS_P1;PMS_P2;Temp;Humidity;BMP_temperature;BMP_pressure;BME280_temperature;BME280_humidity;BME280_pressure;Samples;Min_cycle;Max_cycle;Signal;HPM_P1;HPM_P2
2022/09/01 00:01:20;;;;;;;1.58;0.80;;;;;;;;;;5046692;28;20040;-80
2022/09/01 00:03:47;;;;;;;3.42;0.93;;;;;;;;;;5052960;28;20017;-79
2022/09/01 00:06:21;;;;;;;1.42;0.90;;;;;;;;;;5046339;28;20095;-76
2022/09/01 00:08:55;;;;;;;1.27;0.90;;;;;;;;;;5044277;28;20393;-76
2022/09/01 00:11:22;;;;;;;2.05;1.00;;;;;;;;;;5040576;28;20079;-76
2022/09/01 00:13:49;;;;;;;1.67;0.80;;;;;;;;;;5047609;28;20026;-79
2022/09/01 00:16:16;;;;;;;1.90;0.80;;;;;;;;;;5034494;28;20591;-75
2022/09/01 00:18:48;;;;;;;2.25;1.00;;;;;;;;;;5051194;28;20033;-79
2022/09/01 00:21:15;;;;;;;1.73;0.90;;;;;;;;;;5050534;28;20484;-78
2022/09/01 00:23:40;;;;;;;2.92;0.80;;;;;;;;;;5052743;28;20032;-79
2022/09/01 00:26:05;;;;;;;1.55;0.90;;;;;;;;;;5050839;28;20048;-79
2022/09/01 00:28:38;;;;;;;1.42;0.80;;;;;;;;;;5036835;28;20017;-80
2022/09/01 00:31:06;;;;;;;1.77;0.93;;;;;;;;;;5046564;28;20509;-79
2022/09/01 00:33:33;;;;;;;1.33;0.95;;;;;;;;;;5054514;28;20048;-78
2022/09/01 00:35:59;;;;;;;2.10;0.75;;;;;;;;;;5053997;28;20021;-74
2022/09/01 00:38:25;;;;;;;1.50;0.90;;;;;;;;;;5055194;28;20021;-76
2022/09/01 00:40:51;;;;;;;1.17;0.85;;;;;;;;;;5056353;28;20021;-75
2022/09/01 00:43:21;;;;;;;3.08;1.10;;;;;;;;;;5055613;28;20384;-79
2022/09/01 00:45:48;;;;;;;3.42;1.10;;;;;;;;;;5044478;28;20022;-74
2022/09/01 00:48:14;;;;;;;2.00;0.90;;;;;;;;;;5052199;28;20401;-76
2022/09/01 00:50:40;;;;;;;1.55;0.90;;;;;;;;;;5050575;28;20112;-80
2022/09/01 00:53:07;;;;;;;1.58;0.90;;;;;;;;;;5055126;28;20451;-74
2022/09/01 00:55:36;;;;;;;2.05;1.00;;;;;;;;;;5055491;28;20025;-80
2022/09/01 00:58:03;;;;;;;2.20;1.00;;;;;;;;;;5055941;28;20380;-75
2022/09/01 01:00:31;;;;;;;1.80;1.00;;;;;;;;;;5054606;28;20025;-75
2022/09/01 01:02:57;;;;;;;2.70;0.88;;;;;;;;;;5043595;28;20489;-79
2022/09/01 01:05:52;;;;;;;2.35;0.90;;;;;;;;;;5725329;22;20046;-77
2022/09/01 01:08:20;;;;;;;2.15;1.00;;;;;;;;;;5013909;28;20022;-73
2022/09/01 01:10:46;;;;;;;1.83;0.82;;;;;;;;;;5015552;28;20044;-76
2022/09/01 01:13:14;;;;;;;2.97;1.20;;;;;;;;;;5016080;28;20037;-81
2022/09/01 01:15:43;;;;;;;3.35;1.00;;;;;;;;;;5014561;28;20049;-79
2022/09/01 01:18:15;;;;;;;1.90;1.00;;;;;;;;;;5015831;28;20034;-80
2022/09/01 01:23:40;;;;;;;1.67;1.00;;;;;;;;;;5016288;28;20080;-80
2022/09/01 01:26:08;;;;;;;1.45;0.80;;;;;;;;;;5015808;28;20030;-74
2022/09/01 01:28:38;;;;;;;1.83;1.02;;;;;;;;;;5014585;28;20072;-80
2022/09/01 01:31:11;;;;;;;1.35;0.80;;;;;;;;;;5015778;28;20033;-78
2022/09/01 01:33:45;;;;;;;1.85;0.95;;;;;;;;;;5014276;28;20030;-75
2022/09/01 01:36:18;;;;;;;2.50;1.00;;;;;;;;;;5005642;28;20477;-79
2022/09/01 01:38:45;;;;;;;;;;;;;;;;;;5014476;28;20404;-79
2022/09/01 01:41:13;;;;;;;1.40;0.85;;;;;;;;;;5030553;28;19921;-76
2022/09/01 01:43:40;;;;;;;2.00;0.98;;;;;;;;;;5015567;28;20425;-74
2022/09/01 01:46:08;;;;;;;1.60;1.05;;;;;;;;;;5013989;28;20484;-75
2022/09/01 01:48:36;;;;;;;4.57;1.30;;;;;;;;;;5014332;28;20026;-74
2022/09/01 01:51:04;;;;;;;2.25;1.00;;;;;;;;;;5015304;28;20040;-75
2022/09/01 01:53:31;;;;;;;1.63;0.77;;;;;;;;;;5013919;28;20033;-80
2022/09/01 01:55:58;;;;;;;1.15;0.90;;;;;;;;;;5014305;28;20030;-79
2022/09/01 01:58:24;;;;;;;2.05;1.00;;;;;;;;;;5014123;28;20022;-79
2022/09/01 02:00:53;;;;;;;1.83;1.00;;;;;;;;;;5015599;28;20370;-79
2022/09/01 02:03:21;;;;;;;2.92;1.02;;;;;;;;;;5014951;28;20021;-80
2022/09/01 02:05:49;;;;;;;1.95;1.10;;;;;;;;;;5015414;28;20101;-80
2022/09/01 02:08:20;;;;;;;2.67;1.00;;;;;;;;;;4995657;28;20049;-74
2022/09/01 02:10:48;;;;;;;1.70;1.10;;;;;;;;;;4994837;28;20060;-74
2022/09/01 02:13:19;;;;;;;1.70;0.88;;;;;;;;;;4993409;28;20053;-79
2022/09/01 02:15:52;;;;;;;1.42;0.80;;;;;;;;;;4984434;28;20022;-75
2022/09/01 02:18:25;;;;;;;;;;;;;;;;;;4994353;28;20094;-78
2022/09/01 02:20:52;;;;;;;1.95;1.00;;;;;;;;;;4995358;28;20449;-80
2022/09/01 02:23:22;;;;;;;2.17;1.23;;;;;;;;;;4994118;28;20437;-74
2022/09/01 02:25:49;;;;;;;2.20;1.02;;;;;;;;;;4993927;28;20038;-76
2022/09/01 02:28:16;;;;;;;1.80;1.10;;;;;;;;;;4995344;28;20019;-79
2022/09/01 02:30:44;;;;;;;2.15;1.10;;;;;;;;;;4994922;28;20104;-80
2022/09/01 02:33:10;;;;;;;2.50;1.23;;;;;;;;;;4993169;28;20155;-80
2022/09/01 02:35:36;;;;;;;3.47;1.10;;;;;;;;;;4995181;28;20065;-80
2022/09/01 02:38:04;;;;;;;2.33;1.13;;;;;;;;;;4993553;28;20061;-78
2022/09/01 02:40:31;;;;;;;2.22;1.10;;;;;;;;;;4994852;28;20045;-76
2022/09/01 02:43:00;;;;;;;2.70;1.20;;;;;;;;;;4994260;28;20037;-79
2022/09/01 02:45:28;;;;;;;1.95;1.02;;;;;;;;;;4993586;28;20537;-80
2022/09/01 02:47:56;;;;;;;2.83;1.20;;;;;;;;;;4993143;28;20081;-79
2022/09/01 02:50:23;;;;;;;2.30;1.10;;;;;;;;;;4993466;28;20049;-74
2022/09/01 02:52:51;;;;;;;1.70;1.08;;;;;;;;;;4994708;28;20026;-76
2022/09/01 02:55:19;;;;;;;2.33;1.10;;;;;;;;;;4992468;28;20015;-74
2022/09/01 02:57:47;;;;;;;1.45;1.05;;;;;;;;;;4994748;28;20019;-80
2022/09/01 03:00:21;;;;;;;1.70;1.10;;;;;;;;;;4993109;28;20497;-76
2022/09/01 03:02:51;;;;;;;1.95;1.10;;;;;;;;;;4994354;28;20030;-80
2022/09/01 03:05:24;;;;;;;2.28;1.20;;;;;;;;;;4993778;28;20039;-79
2022/09/01 03:07:55;;;;;;;1.92;1.00;;;;;;;;;;4993272;28;20030;-75
2022/09/01 03:10:22;;;;;;;1.50;1.00;;;;;;;;;;4994247;28;20031;-79
2022/09/01 03:12:48;;;;;;;2.60;1.50;;;;;;;;;;5009337;28;20034;-74
2022/09/01 03:15:13;;;;;;;2.05;1.20;;;;;;;;;;4992546;28;20026;-74
2022/09/01 03:17:40;;;;;;;2.28;1.20;;;;;;;;;;4992751;28;20026;-78
2022/09/01 03:20:06;;;;;;;2.78;1.48;;;;;;;;;;4994132;28;20117;-79
2022/09/01 03:22:32;;;;;;;2.22;1.00;;;;;;;;;;4994107;28;20038;-75
2022/09/01 03:24:58;;;;;;;2.10;1.30;;;;;;;;;;4994009;28;20053;-74
2022/09/01 03:27:23;;;;;;;1.75;1.10;;;;;;;;;;4992800;28;20026;-80
2022/09/01 03:29:51;;;;;;;2.35;1.33;;;;;;;;;;4998106;28;20466;-80
2022/09/01 03:32:16;;;;;;;2.42;1.30;;;;;;;;;;5008379;28;20040;-74
2022/09/01 03:34:42;;;;;;;2.92;1.55;;;;;;;;;;4992469;28;20117;-80
2022/09/01 03:37:08;;;;;;;2.08;1.08;;;;;;;;;;4993590;28;20018;-79
2022/09/01 03:39:34;;;;;;;2.28;1.05;;;;;;;;;;4992669;28;20474;-80
2022/09/01 03:41:59;;;;;;;3.63;1.25;;;;;;;;;;4993894;28;20105;-76
2022/09/01 03:44:25;;;;;;;2.65;1.27;;;;;;;;;;4992383;28;20099;-80
2022/09/01 03:46:51;;;;;;;2.22;0.98;;;;;;;;;;4993479;28;20033;-74
2022/09/01 03:49:26;;;;;;;2.67;1.20;;;;;;;;;;4993543;28;20030;-75
2022/09/01 03:51:52;;;;;;;3.03;1.23;;;;;;;;;;4992642;28;20037;-79
2022/09/01 03:54:22;;;;;;;1.63;1.10;;;;;;;;;;4992525;28;20037;-74
2022/09/01 03:56:48;;;;;;;2.25;1.25;;;;;;;;;;4993387;28;20030;-75
2022/09/01 03:59:15;;;;;;;2.65;1.20;;;;;;;;;;4993455;28;20036;-78
2022/09/01 04:01:42;;;;;;;2.85;1.30;;;;;;;;;;4993386;28;20026;-74
2022/09/01 04:04:14;;;;;;;2.35;1.23;;;;;;;;;;4993286;28;20030;-78
2022/09/01 04:06:41;;;;;;;3.90;1.30;;;;;;;;;;4992947;28;20128;-80
2022/09/01 04:09:07;;;;;;;3.58;1.40;;;;;;;;;;4992845;28;20026;-78
2022/09/01 04:11:33;;;;;;;2.47;1.30;;;;;;;;;;4992360;28;20037;-74
2022/09/01 04:13:59;;;;;;;4.22;1.25;;;;;;;;;;4991616;28;20026;-75
2022/09/01 04:19:18;;;;;;;2.05;1.30;;;;;;;;;;4993161;28;20029;-78
2022/09/01 04:21:45;;;;;;;2.67;1.30;;;;;;;;;;4991909;28;20038;-79
2022/09/01 04:24:13;;;;;;;3.03;1.30;;;;;;;;;;5008394;28;20026;-80
2022/09/01 04:26:39;;;;;;;1.80;1.10;;;;;;;;;;4991649;28;20097;-79
2022/09/01 04:32:14;;;;;;;2.90;1.33;;;;;;;;;;4992791;28;20026;-74
2022/09/01 04:34:40;;;;;;;4.75;1.60;;;;;;;;;;4991196;28;20037;-79
2022/09/01 04:37:11;;;;;;;1.90;1.20;;;;;;;;;;5008239;28;20026;-80
2022/09/01 04:39:37;;;;;;;2.70;1.38;;;;;;;;;;4992932;28;20031;-77
2022/09/01 04:42:05;;;;;;;2.15;1.30;;;;;;;;;;4991546;28;20062;-78
2022/09/01 04:44:30;;;;;;;3.20;1.40;;;;;;;;;;4991847;28;20117;-75
2022/09/01 04:46:56;;;;;;;3.45;1.60;;;;;;;;;;4993271;28;20161;-75
2022/09/01 04:49:23;;;;;;;3.40;1.30;;;;;;;;;;4992730;28;20034;-75
2022/09/01 04:51:50;;;;;;;2.65;1.30;;;;;;;;;;5008146;28;20027;-80
2022/09/01 04:54:17;;;;;;;4.35;1.40;;;;;;;;;;5008041;28;20138;-76
2022/09/01 04:56:48;;;;;;;2.20;1.30;;;;;;;;;;4993166;28;20046;-75
2022/09/01 04:59:14;;;;;;;3.03;1.38;;;;;;;;;;4993085;28;20488;-75
2022/09/01 05:01:44;;;;;;;4.13;1.55;;;;;;;;;;5007984;28;20561;-75
2022/09/01 05:04:21;;;;;;;2.35;1.40;;;;;;;;;;5008087;28;20030;-75
2022/09/01 05:06:58;;;;;;;2.33;1.40;;;;;;;;;;4991472;28;20494;-75
2022/09/01 05:09:24;;;;;;;2.47;1.40;;;;;;;;;;4991034;28;20054;-80
2022/09/01 05:11:50;;;;;;;2.22;1.40;;;;;;;;;;4992953;28;20072;-75
2022/09/01 05:14:21;;;;;;;3.17;1.25;;;;;;;;;;4992635;28;20045;-79
2022/09/01 05:16:57;;;;;;;3.28;1.40;;;;;;;;;;4991386;28;20474;-82
2022/09/01 05:19:27;;;;;;;1.75;1.20;;;;;;;;;;5000137;28;20117;-73
2022/09/01 05:21:57;;;;;;;4.55;1.63;;;;;;;;;;4996275;28;20064;-74
2022/09/01 05:24:24;;;;;;;3.35;1.50;;;;;;;;;;4996244;28;20485;-75
2022/09/01 05:26:49;;;;;;;5.03;1.50;;;;;;;;;;4996171;28;20033;-73
2022/09/01 05:29:16;;;;;;;4.80;1.63;;;;;;;;;;4996299;28;20030;-79
2022/09/01 05:31:44;;;;;;;4.30;1.50;;;;;;;;;;4994845;28;20036;-75
2022/09/01 05:34:11;;;;;;;2.30;1.50;;;;;;;;;;4995707;28;20023;-76
2022/09/01 05:36:41;;;;;;;2.40;1.30;;;;;;;;;;4995681;28;20022;-76
2022/09/01 05:39:09;;;;;;;2.58;1.50;;;;;;;;;;4994791;28;20477;-74
2022/09/01 05:41:36;;;;;;;2.40;1.58;;;;;;;;;;5011078;28;20406;-80
2022/09/01 05:44:06;;;;;;;3.63;1.55;;;;;;;;;;4996147;28;20394;-79
2022/09/01 05:46:35;;;;;;;1.85;1.27;;;;;;;;;;4994581;28;20030;-78
2022/09/01 05:49:01;;;;;;;2.45;1.50;;;;;;;;;;4994458;28;20101;-78
2022/09/01 05:51:28;;;;;;;2.72;1.67;;;;;;;;;;4994552;28;20026;-76
2022/09/01 05:53:57;;;;;;;5.00;1.60;;;;;;;;;;4994692;28;20077;-74
2022/09/01 05:56:25;;;;;;;3.40;1.42;;;;;;;;;;4994484;28;20037;-74
2022/09/01 05:58:52;;;;;;;3.30;1.63;;;;;;;;;;4995641;28;20076;-80
2022/09/01 06:01:25;;;;;;;4.95;1.70;;;;;;;;;;4994140;28;20022;-76
2022/09/01 06:03:53;;;;;;;2.00;1.30;;;;;;;;;;4982533;28;20026;-78
2022/09/01 06:06:23;;;;;;;4.53;1.88;;;;;;;;;;4991932;28;20109;-80
2022/09/01 06:08:50;;;;;;;3.30;1.70;;;;;;;;;;4995466;28;20065;-74
2022/09/01 06:11:16;;;;;;;8.35;2.15;;;;;;;;;;4994271;28;20022;-74
2022/09/01 06:13:43;;;;;;;3.95;1.73;;;;;;;;;;4995399;28;20116;-79
2022/09/01 06:16:10;;;;;;;2.17;1.40;;;;;;;;;;4995654;28;20034;-74
2022/09/01 06:18:37;;;;;;;4.13;2.03;;;;;;;;;;4995390;28;20014;-78
2022/09/01 06:21:04;;;;;;;3.75;1.50;;;;;;;;;;4994041;28;20049;-76
2022/09/01 06:23:30;;;;;;;3.95;1.70;;;;;;;;;;4995110;28;20030;-76
2022/09/01 06:25:56;;;;;;;2.85;1.65;;;;;;;;;;4995095;28;20030;-80
2022/09/01 06:28:23;;;;;;;6.53;1.73;;;;;;;;;;4995326;28;20033;-79
2022/09/01 06:30:50;;;;;;;4.78;2.00;;;;;;;;;;4993836;28;20029;-75
2022/09/01 06:33:16;;;;;;;4.07;1.83;;;;;;;;;;4994997;28;20429;-75
2022/09/01 06:35:45;;;;;;;4.30;1.80;;;;;;;;;;4994819;28;20022;-75
2022/09/01 06:38:12;;;;;;;5.72;2.10;;;;;;;;;;4993452;28;20390;-80
2022/09/01 06:40:41;;;;;;;3.22;1.40;;;;;;;;;;4994904;28;20031;-75
2022/09/01 06:43:08;;;;;;;3.28;1.60;;;;;;;;;;4994732;28;20092;-80
2022/09/01 06:45:48;;;;;;;6.72;2.00;;;;;;;;;;5009883;28;20076;-75
2022/09/01 06:48:14;;;;;;;4.68;1.70;;;;;;;;;;4995234;28;20374;-80
2022/09/01 06:50:41;;;;;;;4.05;1.92;;;;;;;;;;5002647;28;20098;-75
2022/09/01 06:53:10;;;;;;;3.50;1.80;;;;;;;;;;4993317;28;20033;-74
2022/09/01 06:55:37;;;;;;;3.90;2.22;;;;;;;;;;4993321;28;20117;-81
2022/09/01 06:58:05;;;;;;;5.05;1.60;;;;;;;;;;4993426;28;20500;-78
2022/09/01 07:00:30;;;;;;;2.53;1.50;;;;;;;;;;5009373;28;20390;-78
2022/09/01 07:02:57;;;;;;;4.38;1.80;;;;;;;;;;4993157;28;20038;-78
2022/09/01 07:05:24;;;;;;;3.55;1.67;;;;;;;;;;4992767;28;20026;-79
2022/09/01 07:07:53;;;;;;;2.58;1.70;;;;;;;;;;4992915;28;20062;-80
2022/09/01 07:10:26;;;;;;;3.15;1.67;;;;;;;;;;4992622;28;20022;-80
2022/09/01 07:12:54;;;;;;;4.45;1.80;;;;;;;;;;5009669;28;20030;-74
2022/09/01 07:15:21;;;;;;;5.78;1.80;;;;;;;;;;5009092;28;20034;-79
2022/09/01 07:17:51;;;;;;;5.22;1.85;;;;;;;;;;4992873;28;20018;-75
2022/09/01 07:20:28;;;;;;;3.42;1.90;;;;;;;;;;4994337;28;20027;-74
2022/09/01 07:22:55;;;;;;;4.20;2.00;;;;;;;;;;4994299;28;20113;-76
2022/09/01 07:25:21;;;;;;;3.65;1.95;;;;;;;;;;4993749;28;20078;-80
2022/09/01 07:27:50;;;;;;;3.45;1.65;;;;;;;;;;4994289;28;20029;-74
2022/09/01 07:30:20;;;;;;;3.63;1.67;;;;;;;;;;5008900;28;20072;-80
2022/09/01 07:32:47;;;;;;;4.72;1.83;;;;;;;;;;4990634;28;20397;-80
2022/09/01 07:35:17;;;;;;;3.80;1.80;;;;;;;;;;4993587;28;20033;-79
2022/09/01 07:37:42;;;;;;;2.90;1.70;;;;;;;;;;4992730;28;20026;-80
2022/09/01 07:40:10;;;;;;;3.20;1.70;;;;;;;;;;4992499;28;20446;-76
2022/09/01 07:42:39;;;;;;;2.97;1.63;;;;;;;;;;4992065;28;20026;-75
2022/09/01 07:45:10;;;;;;;3.33;1.63;;;;;;;;;;4993433;28;20042;-76
2022/09/01 07:47:36;;;;;;;4.47;1.60;;;;;;;;;;4993685;28;20026;-80
2022/09/01 07:50:07;;;;;;;2.90;1.58;;;;;;;;;;4992381;28;20061;-76
2022/09/01 07:52:48;;;;;;;3.17;1.25;;;;;;;;;;4993883;28;20504;-80
2022/09/01 07:55:15;;;;;;;1.60;1.20;;;;;;;;;;4978046;28;20037;-73
2022/09/01 07:57:44;;;;;;;1.90;1.35;;;;;;;;;;4992162;28;20571;-74
2022/09/01 08:00:11;;;;;;;2.53;1.40;;;;;;;;;;4992358;28;20046;-80
2022/09/01 08:02:40;;;;;;;3.08;1.30;;;;;;;;;;4993276;28;20037;-80
2022/09/01 08:05:07;;;;;;;2.53;1.15;;;;;;;;;;4982184;28;20028;-80
2022/09/01 08:07:33;;;;;;;3.30;1.30;;;;;;;;;;4992013;28;20030;-79
2022/09/01 08:09:58;;;;;;;3.65;1.48;;;;;;;;;;4993650;28;20033;-80
2022/09/01 08:12:24;;;;;;;2.80;1.30;;;;;;;;;;5008060;28;20022;-76
2022/09/01 08:14:52;;;;;;;2.42;1.40;;;;;;;;;;4991947;28;20038;-79
2022/09/01 08:17:18;;;;;;;2.80;1.20;;;;;;;;;;4991675;28;20113;-80
2022/09/01 08:19:45;;;;;;;3.63;1.13;;;;;;;;;;4990812;28;20041;-75
2022/09/01 08:22:11;;;;;;;5.55;1.30;;;;;;;;;;4992737;28;20474;-75
2022/09/01 08:24:37;;;;;;;2.42;1.30;;;;;;;;;;4993433;28;20030;-80
2022/09/01 08:27:03;;;;;;;2.90;1.30;;;;;;;;;;5000157;28;20072;-80
2022/09/01 08:29:28;;;;;;;2.53;1.15;;;;;;;;;;4993297;28;20020;-75
2022/09/01 08:31:54;;;;;;;2.38;1.15;;;;;;;;;;4992316;28;20529;-80
2022/09/01 08:34:19;;;;;;;2.40;1.10;;;;;;;;;;4993550;28;20022;-80
2022/09/01 08:36:45;;;;;;;2.20;1.15;;;;;;;;;;4993210;28;20026;-76
2022/09/01 08:39:10;;;;;;;2.00;1.23;;;;;;;;;;4992152;28;20508;-81
2022/09/01 08:42:02;;;;;;;1.80;1.02;;;;;;;;;;4993191;28;20026;-80
2022/09/01 08:44:40;;;;;;;1.50;1.02;;;;;;;;;;4992936;28;20491;-81
2022/09/01 08:47:09;;;;;;;3.03;1.15;;;;;;;;;;4993061;28;20045;-79
2022/09/01 08:49:38;;;;;;;3.25;1.10;;;;;;;;;;4992008;28;20022;-75
2022/09/01 08:52:35;;;;;;;1.75;1.08;;;;;;;;;;4991787;28;20038;-76
2022/09/01 08:55:04;;;;;;;2.08;1.00;;;;;;;;;;4983635;28;20046;-79
2022/09/01 08:57:37;;;;;;;3.63;1.20;;;;;;;;;;5011726;28;20033;-75
2022/09/01 09:00:09;;;;;;;2.05;0.80;;;;;;;;;;4997312;28;20026;-79
2022/09/01 09:03:13;;;;;;;2.80;1.10;;;;;;;;;;4995293;28;20154;-80
2022/09/01 09:05:56;;;;;;;3.00;1.20;;;;;;;;;;5011420;28;20129;-75
2022/09/01 09:08:27;;;;;;;1.90;1.13;;;;;;;;;;5008282;28;20022;-74
2022/09/01 09:11:23;;;;;;;2.58;1.08;;;;;;;;;;4996536;28;20375;-79
2022/09/01 09:14:33;;;;;;;2.97;1.10;;;;;;;;;;5008092;28;20557;-80
2022/09/01 09:16:59;;;;;;;2.65;0.93;;;;;;;;;;4986052;28;20100;-76
2022/09/01 09:19:35;;;;;;;3.33;1.00;;;;;;;;;;4995194;28;20026;-76
2022/09/01 09:22:05;;;;;;;2.50;0.90;;;;;;;;;;4995156;28;20034;-80
2022/09/01 09:24:50;;;;;;;2.50;1.10;;;;;;;;;;4992602;28;20121;-75
2022/09/01 09:27:26;;;;;;;2.55;1.00;;;;;;;;;;4998967;28;20539;-75
2022/09/01 09:29:54;;;;;;;1.98;0.80;;;;;;;;;;4996700;28;20026;-80
2022/09/01 09:32:22;;;;;;;2.67;1.02;;;;;;;;;;4996040;28;20105;-80
2022/09/01 09:34:48;;;;;;;2.67;1.10;;;;;;;;;;5010857;28;20026;-76
2022/09/01 09:37:29;;;;;;;2.25;0.90;;;;;;;;;;4994785;28;20022;-80
2022/09/01 09:40:10;;;;;;;2.00;1.00;;;;;;;;;;4994754;28;20173;-76
2022/09/01 09:42:39;;;;;;;1.63;0.90;;;;;;;;;;4995850;28;20532;-80
2022/09/01 09:45:22;;;;;;;1.90;1.05;;;;;;;;;;4994808;28;20033;-76
2022/09/01 09:47:47;;;;;;;;;;;;;;;;;;5011385;28;20018;-75
2022/09/01 09:50:30;;;;;;;1.38;0.70;;;;;;;;;;4994579;28;20404;-75
2022/09/01 09:53:15;;;;;;;2.75;0.75;;;;;;;;;;4994571;28;20086;-75
2022/09/01 09:56:14;;;;;;;3.67;0.70;;;;;;;;;;4995796;28;20367;-80
2022/09/01 09:58:42;;;;;;;1.75;0.70;;;;;;;;;;4995494;28;20031;-76
2022/09/01 10:01:15;;;;;;;3.85;0.80;;;;;;;;;;4994289;28;20030;-80
2022/09/01 10:03:53;;;;;;;2.00;0.80;;;;;;;;;;4994606;28;20033;-75
2022/09/01 10:06:40;;;;;;;2.70;0.70;;;;;;;;;;4993821;28;20053;-75
2022/09/01 10:09:26;;;;;;;3.50;0.75;;;;;;;;;;4993907;28;20753;-80
2022/09/01 10:11:54;;;;;;;4.10;0.90;;;;;;;;;;4990234;28;20498;-80
2022/09/01 10:14:59;;;;;;;2.90;0.70;;;;;;;;;;4995458;28;20022;-80
2022/09/01 10:17:45;;;;;;;2.10;0.70;;;;;;;;;;4983369;28;20038;-81
2022/09/01 10:20:17;;;;;;;2.67;0.70;;;;;;;;;;4993677;28;20073;-74
2022/09/01 10:22:43;;;;;;;1.40;0.80;;;;;;;;;;4995291;28;20045;-81
2022/09/01 10:25:24;;;;;;;2.92;0.70;;;;;;;;;;4994067;28;20026;-80
2022/09/01 10:28:11;;;;;;;1.17;0.77;;;;;;;;;;4995150;28;20105;-75
2022/09/01 10:30:42;;;;;;;4.55;0.80;;;;;;;;;;4995118;28;20022;-76
2022/09/01 10:33:08;;;;;;;1.98;0.65;;;;;;;;;;4988865;28;20030;-80
2022/09/01 10:35:38;;;;;;;3.00;0.80;;;;;;;;;;4995157;28;20065;-76
2022/09/01 10:38:29;;;;;;;2.08;0.82;;;;;;;;;;4994584;28;20442;-80
2022/09/01 10:41:06;;;;;;;3.42;0.80;;;;;;;;;;4993408;28;20042;-74
2022/09/01 10:43:47;;;;;;;1.70;0.80;;;;;;;;;;4980608;28;20482;-81
2022/09/01 10:46:19;;;;;;;1.45;0.70;;;;;;;;;;4994958;28;20040;-81
2022/09/01 10:48:49;;;;;;;2.00;0.88;;;;;;;;;;4998896;28;20026;-80
2022/09/01 10:51:14;;;;;;;2.83;0.90;;;;;;;;;;4993456;28;20034;-81
2022/09/01 10:53:54;;;;;;;1.63;0.80;;;;;;;;;;4994772;28;20089;-81
2022/09/01 10:56:35;;;;;;;1.23;0.80;;;;;;;;;;4993219;28;20029;-75
2022/09/01 10:59:24;;;;;;;0.90;0.70;;;;;;;;;;4994762;28;20099;-80
2022/09/01 11:01:49;;;;;;;4.38;0.90;;;;;;;;;;4984539;28;20464;-80
2022/09/01 11:04:44;;;;;;;2.05;0.70;;;;;;;;;;5009554;28;20065;-80
2022/09/01 11:07:22;;;;;;;1.05;0.68;;;;;;;;;;4982154;28;20069;-75
2022/09/01 11:10:18;;;;;;;1.75;0.85;;;;;;;;;;5009295;28;20030;-75
2022/09/01 11:13:05;;;;;;;1.67;0.60;;;;;;;;;;4983678;28;20540;-80
2022/09/01 11:15:36;;;;;;;0.98;0.60;;;;;;;;;;4994394;28;20034;-75
2022/09/01 11:18:08;;;;;;;1.17;0.70;;;;;;;;;;4996883;28;20394;-79
2022/09/01 11:20:38;;;;;;;0.95;0.70;;;;;;;;;;4994112;28;20058;-75
2022/09/01 11:23:20;;;;;;;1.50;0.60;;;;;;;;;;4992728;28;20029;-76
2022/09/01 11:25:49;;;;;;;1.52;0.60;;;;;;;;;;4992556;28;20062;-77
2022/09/01 11:28:14;;;;;;;1.38;0.80;;;;;;;;;;4992701;28;20038;-75
2022/09/01 11:30:51;;;;;;;2.25;0.68;;;;;;;;;;5009060;28;20394;-80
2022/09/01 11:33:50;;;;;;;1.77;0.88;;;;;;;;;;4992557;28;20505;-80
2022/09/01 11:36:46;;;;;;;1.08;0.70;;;;;;;;;;4992595;28;20474;-80
2022/09/01 11:39:18;;;;;;;0.90;0.60;;;;;;;;;;4993842;28;20034;-81
2022/09/01 11:42:02;;;;;;;1.27;0.60;;;;;;;;;;5008876;28;20039;-76
2022/09/01 11:44:39;;;;;;;1.00;0.68;;;;;;;;;;4994186;28;20034;-81
2022/09/01 11:47:09;;;;;;;0.85;0.50;;;;;;;;;;5008975;28;20553;-80
2022/09/01 11:49:51;;;;;;;1.38;0.50;;;;;;;;;;4992400;28;20030;-76
2022/09/01 11:52:19;;;;;;;1.20;0.60;;;;;;;;;;5008732;28;20490;-76
2022/09/01 11:54:48;;;;;;;1.10;0.50;;;;;;;;;;4993764;28;20030;-81
2022/09/01 11:57:21;;;;;;;1.67;0.45;;;;;;;;;;4993344;28;20030;-74
2022/09/01 11:59:47;;;;;;;1.88;0.60;;;;;;;;;;4993454;28;20549;-80
2022/09/01 12:02:17;;;;;;;1.08;0.50;;;;;;;;;;4991714;28;20109;-80
2022/09/01 12:04:43;;;;;;;2.47;0.50;;;;;;;;;;4992370;28;20486;-80
2022/09/01 12:07:32;;;;;;;1.73;0.60;;;;;;;;;;4991696;28;20030;-81
2022/09/01 12:09:57;;;;;;;0.70;0.52;;;;;;;;;;4986935;28;20034;-81
2022/09/01 12:12:35;;;;;;;1.95;0.30;;;;;;;;;;4992163;28;20125;-81
2022/09/01 12:15:22;;;;;;;0.82;0.40;;;;;;;;;;4992141;28;20036;-74
2022/09/01 12:17:48;;;;;;;1.63;0.60;;;;;;;;;;4990765;28;20069;-80
2022/09/01 12:20:21;;;;;;;2.72;0.68;;;;;;;;;;4992167;28;20038;-80
2022/09/01 12:22:47;;;;;;;1.65;0.60;;;;;;;;;;4991897;28;20065;-75
2022/09/01 12:25:25;;;;;;;1.58;0.52;;;;;;;;;;4992222;28;20056;-76
2022/09/01 12:27:51;;;;;;;1.70;0.77;;;;;;;;;;4993124;28;20027;-80
2022/09/01 12:30:17;;;;;;;1.50;0.70;;;;;;;;;;4995343;28;20022;-80
2022/09/01 12:32:43;;;;;;;1.40;0.60;;;;;;;;;;4995822;28;20081;-76
2022/09/01 12:35:20;;;;;;;1.30;0.60;;;;;;;;;;4997273;28;20441;-75
2022/09/01 12:37:47;;;;;;;1.38;0.60;;;;;;;;;;4995702;28;20493;-81
2022/09/01 12:40:33;;;;;;;1.30;0.50;;;;;;;;;;5012372;28;20489;-76
2022/09/01 12:42:59;;;;;;;1.52;0.50;;;;;;;;;;4988705;28;20058;-74
2022/09/01 12:45:46;;;;;;;0.98;0.50;;;;;;;;;;4995404;28;20465;-76
2022/09/01 12:48:31;;;;;;;1.42;0.50;;;;;;;;;;4996917;28;20026;-80
2022/09/01 12:51:05;;;;;;;2.85;0.60;;;;;;;;;;4997241;28;20027;-75
2022/09/01 12:53:32;;;;;;;1.15;0.60;;;;;;;;;;4996978;28;20030;-81
2022/09/01 12:56:02;;;;;;;2.05;0.70;;;;;;;;;;5011985;28;20068;-75
2022/09/01 12:58:29;;;;;;;2.20;0.70;;;;;;;;;;4995316;28;20394;-80
2022/09/01 13:01:04;;;;;;;0.95;0.52;;;;;;;;;;4995525;28;20027;-74
2022/09/01 13:03:31;;;;;;;1.20;0.57;;;;;;;;;;5006110;28;20137;-74
2022/09/01 13:05:58;;;;;;;1.23;0.60;;;;;;;;;;5008741;28;20498;-78
2022/09/01 13:08:27;;;;;;;2.42;0.65;;;;;;;;;;4995608;28;20113;-81
2022/09/01 13:11:02;;;;;;;2.20;0.50;;;;;;;;;;4995368;28;20117;-80
2022/09/01 13:13:28;;;;;;;1.52;0.60;;;;;;;;;;4996703;28;20053;-80
2022/09/01 13:16:00;;;;;;;1.85;0.65;;;;;;;;;;4995105;28;20030;-75
2022/09/01 13:18:27;;;;;;;2.20;0.60;;;;;;;;;;4995080;28;20027;-81
2022/09/01 13:20:54;;;;;;;2.65;0.60;;;;;;;;;;4996396;28;20522;-81
2022/09/01 13:23:20;;;;;;;1.05;0.60;;;;;;;;;;4995048;28;20488;-74
2022/09/01 13:25:46;;;;;;;1.30;0.70;;;;;;;;;;4996359;28;20057;-80
2022/09/01 13:28:13;;;;;;;1.77;0.60;;;;;;;;;;4989650;28;20149;-75
2022/09/01 13:30:38;;;;;;;2.38;0.80;;;;;;;;;;4996459;28;20022;-75
2022/09/01 13:33:04;;;;;;;1.25;0.60;;;;;;;;;;4995966;28;20386;-76
2022/09/01 13:35:30;;;;;;;2.03;0.50;;;;;;;;;;4996332;28;20022;-81
2022/09/01 13:37:55;;;;;;;1.27;0.60;;;;;;;;;;4994416;28;20109;-76
2022/09/01 13:40:22;;;;;;;2.60;0.65;;;;;;;;;;4995110;28;20042;-76
2022/09/01 13:42:51;;;;;;;1.45;0.68;;;;;;;;;;4995998;28;20030;-81
2022/09/01 13:45:19;;;;;;;2.30;0.70;;;;;;;;;;5011031;28;20050;-80
2022/09/01 13:47:46;;;;;;;2.00;0.50;;;;;;;;;;4994803;28;20030;-81
2022/09/01 13:50:17;;;;;;;3.00;0.60;;;;;;;;;;4994567;28;20026;-80
2022/09/01 13:52:47;;;;;;;1.30;0.60;;;;;;;;;;4994642;28;20029;-81
2022/09/01 13:55:18;;;;;;;2.03;0.68;;;;;;;;;;4994732;28;20026;-76
2022/09/01 13:57:43;;;;;;;1.17;0.60;;;;;;;;;;4995745;28;20027;-80
2022/09/01 14:00:16;;;;;;;2.28;0.50;;;;;;;;;;4994607;28;20077;-75
2022/09/01 14:02:48;;;;;;;2.25;0.60;;;;;;;;;;4995812;28;20037;-74
2022/09/01 14:05:18;;;;;;;0.88;0.45;;;;;;;;;;4995100;28;20026;-76
2022/09/01 14:07:43;;;;;;;1.77;0.60;;;;;;;;;;4995838;28;20570;-80
2022/09/01 14:10:10;;;;;;;1.48;0.60;;;;;;;;;;4994291;28;20054;-80
2022/09/01 14:12:40;;;;;;;1.67;0.50;;;;;;;;;;4995584;28;20088;-76
2022/09/01 14:15:07;;;;;;;3.22;0.70;;;;;;;;;;5010212;28;20037;-76
2022/09/01 14:17:34;;;;;;;4.32;0.68;;;;;;;;;;4993757;28;20026;-75
2022/09/01 14:20:00;;;;;;;1.45;0.70;;;;;;;;;;4980233;28;20386;-80
2022/09/01 14:22:25;;;;;;;1.27;0.60;;;;;;;;;;5002184;28;20022;-76
2022/09/01 14:24:51;;;;;;;0.65;0.60;;;;;;;;;;4994181;28;20069;-80
2022/09/01 14:27:16;;;;;;;1.33;0.52;;;;;;;;;;4995097;28;20033;-74
2022/09/01 14:29:42;;;;;;;1.35;0.52;;;;;;;;;;4995249;28;20041;-80
2022/09/01 14:32:07;;;;;;;1.95;0.70;;;;;;;;;;4961231;28;20034;-81
2022/09/01 14:34:35;;;;;;;1.35;0.60;;;;;;;;;;4994226;28;20114;-74
2022/09/01 14:37:00;;;;;;;1.33;0.57;;;;;;;;;;4995145;28;20037;-80
2022/09/01 14:39:26;;;;;;;3.72;0.73;;;;;;;;;;4994821;28;20038;-76
2022/09/01 14:41:51;;;;;;;1.60;0.70;;;;;;;;;;4993592;28;20113;-80
2022/09/01 14:44:16;;;;;;;1.27;0.50;;;;;;;;;;4993297;28;20068;-75
2022/09/01 14:46:42;;;;;;;2.05;0.80;;;;;;;;;;4994660;28;20510;-80
2022/09/01 14:49:10;;;;;;;2.08;0.60;;;;;;;;;;4994669;28;20077;-80
2022/09/01 14:51:37;;;;;;;4.85;0.63;;;;;;;;;;4993734;28;20390;-76
2022/09/01 14:54:03;;;;;;;1.17;0.60;;;;;;;;;;4994836;28;20105;-79
2022/09/01 14:56:29;;;;;;;1.10;0.70;;;;;;;;;;4994438;28;20092;-74
2022/09/01 14:58:59;;;;;;;3.78;0.70;;;;;;;;;;4993783;28;20042;-74
2022/09/01 15:01:26;;;;;;;3.20;0.73;;;;;;;;;;4992162;28;20077;-81
2022/09/01 15:03:52;;;;;;;1.25;0.63;;;;;;;;;;5005275;28;20034;-79
2022/09/01 15:06:19;;;;;;;2.60;0.70;;;;;;;;;;4993964;28;20132;-74
2022/09/01 15:08:46;;;;;;;2.72;0.85;;;;;;;;;;4994794;28;20037;-80
2022/09/01 15:11:17;;;;;;;1.23;0.80;;;;;;;;;;4992509;28;20126;-74